sensor_id;sensor_type;location;lat;lon;timestamp;temperature;humidity
5304;DHT22;2674;49.722;10.892;2024-01-16T00:01:43;-0.60;99.90
5304;DHT22;2674;49.722;10.892;2024-01-16T00:04:10;-0.60;99.90
5304;DHT22;2674;49.722;10.892;2024-01-16T00:06:42;-0.60;99.90
5304;DHT22;2674;49.722;10.892;2024-01-16T00:09:08;-0.60;99.90
5304;DHT22;2674;49.722;10.892;2024-01-16T00:11:42;-0.60;99.90
5304;DHT22;2674;49.722;10.892;2024-01-16T00:14:08;-0.60;99.90
5304;DHT22;2674;49.722;10.892;2024-01-16T00:16:45;-0.60;99.90
5304;DHT22;2674;49.722;10.892;2024-01-16T00:19:11;-0.60;99.90
5304;DHT22;2674;49.722;10.892;2024-01-16T00:21:41;-0.60;99.90
5304;DHT22;2674;49.722;10.892;2024-01-16T00:24:07;-0.60;99.90
5304;DHT22;2674;49.722;10.892;2024-01-16T00:26:34;-0.70;99.90
5304;DHT22;2674;49.722;10.892;2024-01-16T00:28:59;-0.70;99.90
5304;DHT22;2674;49.722;10.892;2024-01-16T00:31:26;-0.70;99.90
5304;DHT22;2674;49.722;10.892;2024-01-16T00:33:52;-0.70;99.90
5304;DHT22;2674;49.722;10.892;2024-01-16T00:36:18;-0.70;99.90
5304;DHT22;2674;49.722;10.892;2024-01-16T00:38:44;-0.70;99.90
5304;DHT22;2674;49.722;10.892;2024-01-16T00:41:10;-0.70;99.90
5304;DHT22;2674;49.722;10.892;2024-01-16T00:43:36;-0.70;99.90
5304;DHT22;2674;49.722;10.892;2024-01-16T00:46:02;-0.70;99.90
5304;DHT22;2674;49.722;10.892;2024-01-16T00:48:28;-0.70;99.90
5304;DHT22;2674;49.722;10.892;2024-01-16T00:50:54;-0.70;99.90
5304;DHT22;2674;49.722;10.892;2024-01-16T00:53:20;-0.70;99.90
5304;DHT22;2674;49.722;10.892;2024-01-16T00:55:45;-0.70;99.90
5304;DHT22;2674;49.722;10.892;2024-01-16T00:58:11;-0.70;99.90
5304;DHT22;2674;49.722;10.892;2024-01-16T01:00:38;-0.70;99.90
5304;DHT22;2674;49.722;10.892;2024-01-16T01:03:04;-0.70;99.90
5304;DHT22;2674;49.722;10.892;2024-01-16T01:05:30;-0.70;99.90
5304;DHT22;2674;49.722;10.892;2024-01-16T01:07:57;-0.70;99.90
5304;DHT22;2674;49.722;10.892;2024-01-16T01:10:23;-0.80;99.90
5304;DHT22;2674;49.722;10.892;2024-01-16T01:12:49;-0.70;99.90
5304;DHT22;2674;49.722;10.892;2024-01-16T01:15:15;-0.80;99.90
5304;DHT22;2674;49.722;10.892;2024-01-16T01:17:41;-0.80;99.90
5304;DHT22;2674;49.722;10.892;2024-01-16T01:20:10;-0.80;99.90
5304;DHT22;2674;49.722;10.892;2024-01-16T01:22:38;-0.80;99.90
5304;DHT22;2674;49.722;10.892;2024-01-16T01:25:04;-0.80;99.90
5304;DHT22;2674;49.722;10.892;2024-01-16T01:27:30;-0.80;99.90
5304;DHT22;2674;49.722;10.892;2024-01-16T01:29:56;-0.80;99.90
5304;DHT22;2674;49.722;10.892;2024-01-16T01:32:21;-0.80;99.90
5304;DHT22;2674;49.722;10.892;2024-01-16T01:34:47;-0.80;99.90
5304;DHT22;2674;49.722;10.892;2024-01-16T01:37:13;-0.80;99.90
5304;DHT22;2674;49.722;10.892;2024-01-16T01:39:40;-0.80;99.90
5304;DHT22;2674;49.722;10.892;2024-01-16T01:42:06;-0.80;99.90
5304;DHT22;2674;49.722;10.892;2024-01-16T01:44:32;-0.80;99.90
5304;DHT22;2674;49.722;10.892;2024-01-16T01:46:58;-0.80;99.90
5304;DHT22;2674;49.722;10.892;2024-01-16T01:49:25;-0.70;99.90
5304;DHT22;2674;49.722;10.892;2024-01-16T01:51:52;-0.70;99.90
5304;DHT22;2674;49.722;10.892;2024-01-16T01:54:19;-0.80;99.90
5304;DHT22;2674;49.722;10.892;2024-01-16T01:56:47;-0.80;99.90
5304;DHT22;2674;49.722;10.892;2024-01-16T01:59:14;-0.80;99.90
5304;DHT22;2674;49.722;10.892;2024-01-16T02:01:41;-0.80;99.90
5304;DHT22;2674;49.722;10.892;2024-01-16T02:04:08;-0.80;99.90
5304;DHT22;2674;49.722;10.892;2024-01-16T02:06:34;-0.90;99.90
5304;DHT22;2674;49.722;10.892;2024-01-16T02:09:01;-0.80;99.90
5304;DHT22;2674;49.722;10.892;2024-01-16T02:11:26;-0.80;99.90
5304;DHT22;2674;49.722;10.892;2024-01-16T02:13:52;-0.80;99.90
5304;DHT22;2674;49.722;10.892;2024-01-16T02:16:22;-0.80;99.90
5304;DHT22;2674;49.722;10.892;2024-01-16T02:18:48;-0.80;99.90
5304;DHT22;2674;49.722;10.892;2024-01-16T02:21:20;-0.80;99.90
5304;DHT22;2674;49.722;10.892;2024-01-16T02:23:46;-0.80;99.90
5304;DHT22;2674;49.722;10.892;2024-01-16T02:26:14;-0.80;99.90
5304;DHT22;2674;49.722;10.892;2024-01-16T02:28:41;-0.80;99.90
5304;DHT22;2674;49.722;10.892;2024-01-16T02:31:07;-0.80;99.90
5304;DHT22;2674;49.722;10.892;2024-01-16T02:33:33;-0.80;99.90
5304;DHT22;2674;49.722;10.892;2024-01-16T02:35:59;-0.80;99.90
5304;DHT22;2674;49.722;10.892;2024-01-16T02:38:25;-0.80;99.90
5304;DHT22;2674;49.722;10.892;2024-01-16T02:40:51;-0.80;99.90
5304;DHT22;2674;49.722;10.892;2024-01-16T02:43:16;-0.80;99.90
5304;DHT22;2674;49.722;10.892;2024-01-16T02:45:42;-0.80;99.90
5304;DHT22;2674;49.722;10.892;2024-01-16T02:48:09;-0.80;99.90
5304;DHT22;2674;49.722;10.892;2024-01-16T02:50:34;-0.80;99.90
5304;DHT22;2674;49.722;10.892;2024-01-16T02:53:00;-0.80;99.90
5304;DHT22;2674;49.722;10.892;2024-01-16T02:55:26;-0.80;99.90
5304;DHT22;2674;49.722;10.892;2024-01-16T02:57:52;-0.80;99.90
5304;DHT22;2674;49.722;10.892;2024-01-16T03:00:18;-0.90;99.90
5304;DHT22;2674;49.722;10.892;2024-01-16T03:02:44;-0.90;99.90
5304;DHT22;2674;49.722;10.892;2024-01-16T03:05:10;-0.90;99.90
5304;DHT22;2674;49.722;10.892;2024-01-16T03:07:36;-0.90;99.90
5304;DHT22;2674;49.722;10.892;2024-01-16T03:10:02;-1.00;99.90
5304;DHT22;2674;49.722;10.892;2024-01-16T03:12:28;-1.00;99.90
5304;DHT22;2674;49.722;10.892;2024-01-16T03:14:54;-0.90;99.90
5304;DHT22;2674;49.722;10.892;2024-01-16T03:17:21;-1.00;99.90
5304;DHT22;2674;49.722;10.892;2024-01-16T03:19:47;-1.00;99.90
5304;DHT22;2674;49.722;10.892;2024-01-16T03:22:12;-1.00;99.90
5304;DHT22;2674;49.722;10.892;2024-01-16T03:24:38;-1.00;99.90
5304;DHT22;2674;49.722;10.892;2024-01-16T03:27:04;-1.00;99.90
5304;DHT22;2674;49.722;10.892;2024-01-16T03:29:30;-1.00;99.90
5304;DHT22;2674;49.722;10.892;2024-01-16T03:31:56;-1.00;99.90
5304;DHT22;2674;49.722;10.892;2024-01-16T03:34:23;-1.10;99.90
5304;DHT22;2674;49.722;10.892;2024-01-16T03:36:49;-1.00;99.90
5304;DHT22;2674;49.722;10.892;2024-01-16T03:39:15;-1.00;99.90
5304;DHT22;2674;49.722;10.892;2024-01-16T03:41:40;-1.00;99.90
5304;DHT22;2674;49.722;10.892;2024-01-16T03:44:06;-1.00;99.90
5304;DHT22;2674;49.722;10.892;2024-01-16T03:46:32;-1.00;99.90
5304;DHT22;2674;49.722;10.892;2024-01-16T03:48:58;-1.00;99.90
5304;DHT22;2674;49.722;10.892;2024-01-16T03:51:23;-1.00;99.90
5304;DHT22;2674;49.722;10.892;2024-01-16T03:53:49;-1.00;99.90
5304;DHT22;2674;49.722;10.892;2024-01-16T03:56:16;-1.00;99.90
5304;DHT22;2674;49.722;10.892;2024-01-16T03:58:42;-1.00;99.90
5304;DHT22;2674;49.722;10.892;2024-01-16T04:01:08;-1.00;99.90
5304;DHT22;2674;49.722;10.892;2024-01-16T04:03:34;-1.00;99.90
5304;DHT22;2674;49.722;10.892;2024-01-16T04:06:13;-1.00;99.90
5304;DHT22;2674;49.722;10.892;2024-01-16T04:08:39;-1.00;99.90
5304;DHT22;2674;49.722;10.892;2024-01-16T04:11:04;-1.10;99.90
5304;DHT22;2674;49.722;10.892;2024-01-16T04:13:30;-1.10;99.90
5304;DHT22;2674;49.722;10.892;2024-01-16T04:15:56;-1.10;99.90
5304;DHT22;2674;49.722;10.892;2024-01-16T04:18:22;-1.10;99.90
5304;DHT22;2674;49.722;10.892;2024-01-16T04:20:48;-1.10;99.90
5304;DHT22;2674;49.722;10.892;2024-01-16T04:23:13;-1.20;99.90
5304;DHT22;2674;49.722;10.892;2024-01-16T04:25:39;-1.30;99.90
5304;DHT22;2674;49.722;10.892;2024-01-16T04:28:05;-1.40;99.90
5304;DHT22;2674;49.722;10.892;2024-01-16T04:30:31;-1.50;99.90
5304;DHT22;2674;49.722;10.892;2024-01-16T04:32:56;-1.50;99.90
5304;DHT22;2674;49.722;10.892;2024-01-16T04:35:22;-1.50;99.90
5304;DHT22;2674;49.722;10.892;2024-01-16T04:37:48;-1.60;99.90
5304;DHT22;2674;49.722;10.892;2024-01-16T04:40:14;-1.60;99.90
5304;DHT22;2674;49.722;10.892;2024-01-16T04:42:40;-1.70;99.90
5304;DHT22;2674;49.722;10.892;2024-01-16T04:45:06;-1.70;99.90
5304;DHT22;2674;49.722;10.892;2024-01-16T04:47:32;-1.80;99.90
5304;DHT22;2674;49.722;10.892;2024-01-16T04:49:58;-1.80;99.90
5304;DHT22;2674;49.722;10.892;2024-01-16T04:52:23;-1.80;99.90
5304;DHT22;2674;49.722;10.892;2024-01-16T04:54:49;-1.90;99.90
5304;DHT22;2674;49.722;10.892;2024-01-16T04:57:15;-1.90;99.90
5304;DHT22;2674;49.722;10.892;2024-01-16T04:59:41;-1.90;99.90
5304;DHT22;2674;49.722;10.892;2024-01-16T05:02:07;-1.90;99.90
5304;DHT22;2674;49.722;10.892;2024-01-16T05:04:37;-1.90;99.90
5304;DHT22;2674;49.722;10.892;2024-01-16T05:07:03;-1.90;99.90
5304;DHT22;2674;49.722;10.892;2024-01-16T05:09:29;-1.90;99.90
5304;DHT22;2674;49.722;10.892;2024-01-16T05:11:55;-1.80;99.90
5304;DHT22;2674;49.722;10.892;2024-01-16T05:14:21;-1.80;99.90
5304;DHT22;2674;49.722;10.892;2024-01-16T05:16:51;-1.70;99.90
5304;DHT22;2674;49.722;10.892;2024-01-16T05:19:16;-1.70;99.90
5304;DHT22;2674;49.722;10.892;2024-01-16T05:21:42;-1.70;99.90
5304;DHT22;2674;49.722;10.892;2024-01-16T05:24:08;-1.70;99.90
5304;DHT22;2674;49.722;10.892;2024-01-16T05:26:34;-1.70;99.90
5304;DHT22;2674;49.722;10.892;2024-01-16T05:29:00;-1.70;99.90
5304;DHT22;2674;49.722;10.892;2024-01-16T05:31:29;-1.60;99.90
5304;DHT22;2674;49.722;10.892;2024-01-16T05:33:56;-1.60;99.90
5304;DHT22;2674;49.722;10.892;2024-01-16T05:36:23;-1.60;99.90
5304;DHT22;2674;49.722;10.892;2024-01-16T05:38:50;-1.60;99.90
5304;DHT22;2674;49.722;10.892;2024-01-16T05:41:15;-1.60;99.90
5304;DHT22;2674;49.722;10.892;2024-01-16T05:43:41;-1.60;99.90
5304;DHT22;2674;49.722;10.892;2024-01-16T05:46:07;-1.60;99.90
5304;DHT22;2674;49.722;10.892;2024-01-16T05:48:33;-1.60;99.90
5304;DHT22;2674;49.722;10.892;2024-01-16T05:50:58;-1.60;99.90
5304;DHT22;2674;49.722;10.892;2024-01-16T05:53:24;-1.60;99.90
5304;DHT22;2674;49.722;10.892;2024-01-16T05:55:50;-1.60;99.90
5304;DHT22;2674;49.722;10.892;2024-01-16T05:58:16;-1.50;99.90
5304;DHT22;2674;49.722;10.892;2024-01-16T06:00:42;-1.50;99.90
5304;DHT22;2674;49.722;10.892;2024-01-16T06:03:07;-1.50;99.90
5304;DHT22;2674;49.722;10.892;2024-01-16T06:05:33;-1.50;99.90
5304;DHT22;2674;49.722;10.892;2024-01-16T06:07:59;-1.50;99.90
5304;DHT22;2674;49.722;10.892;2024-01-16T06:10:25;-1.50;99.90
5304;DHT22;2674;49.722;10.892;2024-01-16T06:12:50;-1.50;99.90
5304;DHT22;2674;49.722;10.892;2024-01-16T06:15:16;-1.50;99.90
5304;DHT22;2674;49.722;10.892;2024-01-16T06:17:42;-1.50;99.90
5304;DHT22;2674;49.722;10.892;2024-01-16T06:20:08;-1.50;99.90
5304;DHT22;2674;49.722;10.892;2024-01-16T06:22:34;-1.50;99.90
5304;DHT22;2674;49.722;10.892;2024-01-16T06:25:00;-1.50;99.90
5304;DHT22;2674;49.722;10.892;2024-01-16T06:27:27;-1.50;99.90
5304;DHT22;2674;49.722;10.892;2024-01-16T06:29:53;-1.50;99.90
5304;DHT22;2674;49.722;10.892;2024-01-16T06:32:19;-1.50;99.90
5304;DHT22;2674;49.722;10.892;2024-01-16T06:34:44;-1.50;99.90
5304;DHT22;2674;49.722;10.892;2024-01-16T06:37:10;-1.50;99.90
5304;DHT22;2674;49.722;10.892;2024-01-16T06:39:36;-1.50;99.90
5304;DHT22;2674;49.722;10.892;2024-01-16T06:42:03;-1.50;99.90
5304;DHT22;2674;49.722;10.892;2024-01-16T06:44:30;-1.50;99.90
5304;DHT22;2674;49.722;10.892;2024-01-16T06:46:56;-1.50;99.90
5304;DHT22;2674;49.722;10.892;2024-01-16T06:49:22;-1.60;99.90
5304;DHT22;2674;49.722;10.892;2024-01-16T06:51:48;-1.60;99.90
5304;DHT22;2674;49.722;10.892;2024-01-16T06:54:13;-1.60;99.90
5304;DHT22;2674;49.722;10.892;2024-01-16T06:56:39;-1.60;99.90
5304;DHT22;2674;49.722;10.892;2024-01-16T06:59:05;-1.60;99.90
5304;DHT22;2674;49.722;10.892;2024-01-16T07:01:31;-1.60;99.90
5304;DHT22;2674;49.722;10.892;2024-01-16T07:03:56;-1.60;99.90
5304;DHT22;2674;49.722;10.892;2024-01-16T07:06:23;-1.60;99.90
5304;DHT22;2674;49.722;10.892;2024-01-16T07:08:49;-1.60;99.90
5304;DHT22;2674;49.722;10.892;2024-01-16T07:11:15;-1.60;99.90
5304;DHT22;2674;49.722;10.892;2024-01-16T07:13:41;-1.60;99.90
5304;DHT22;2674;49.722;10.892;2024-01-16T07:16:10;-1.60;99.90
5304;DHT22;2674;49.722;10.892;2024-01-16T07:18:37;-1.60;99.90
5304;DHT22;2674;49.722;10.892;2024-01-16T07:21:03;-1.60;99.90
5304;DHT22;2674;49.722;10.892;2024-01-16T07:23:29;-1.50;99.90
5304;DHT22;2674;49.722;10.892;2024-01-16T07:25:56;-1.50;99.90
5304;DHT22;2674;49.722;10.892;2024-01-16T07:28:21;-1.50;99.90
5304;DHT22;2674;49.722;10.892;2024-01-16T07:30:53;-1.50;99.90
5304;DHT22;2674;49.722;10.892;2024-01-16T07:33:19;-1.50;99.90
5304;DHT22;2674;49.722;10.892;2024-01-16T07:35:45;-1.60;99.90
5304;DHT22;2674;49.722;10.892;2024-01-16T07:38:13;-1.60;99.90
5304;DHT22;2674;49.722;10.892;2024-01-16T07:40:39;-1.60;99.90
5304;DHT22;2674;49.722;10.892;2024-01-16T07:43:05;-1.60;99.90
5304;DHT22;2674;49.722;10.892;2024-01-16T07:45:30;-1.60;99.90
5304;DHT22;2674;49.722;10.892;2024-01-16T07:47:56;-1.60;99.90
5304;DHT22;2674;49.722;10.892;2024-01-16T07:50:22;-1.60;99.90
5304;DHT22;2674;49.722;10.892;2024-01-16T07:52:48;-1.60;99.90
5304;DHT22;2674;49.722;10.892;2024-01-16T07:55:14;-1.60;99.90
5304;DHT22;2674;49.722;10.892;2024-01-16T07:57:39;-1.60;99.90
5304;DHT22;2674;49.722;10.892;2024-01-16T08:00:05;-1.60;99.90
5304;DHT22;2674;49.722;10.892;2024-01-16T08:02:32;-1.60;99.90
5304;DHT22;2674;49.722;10.892;2024-01-16T08:04:59;-1.60;99.90
5304;DHT22;2674;49.722;10.892;2024-01-16T08:07:26;-1.50;99.90
5304;DHT22;2674;49.722;10.892;2024-01-16T08:09:52;-1.60;99.90
5304;DHT22;2674;49.722;10.892;2024-01-16T08:12:18;-1.60;99.90
5304;DHT22;2674;49.722;10.892;2024-01-16T08:14:44;-1.60;99.90
5304;DHT22;2674;49.722;10.892;2024-01-16T08:17:09;-1.60;99.90
5304;DHT22;2674;49.722;10.892;2024-01-16T08:19:35;-1.60;99.90
5304;DHT22;2674;49.722;10.892;2024-01-16T08:22:01;-1.60;99.90
5304;DHT22;2674;49.722;10.892;2024-01-16T08:24:31;-1.50;99.90
5304;DHT22;2674;49.722;10.892;2024-01-16T08:26:57;-1.50;99.90
5304;DHT22;2674;49.722;10.892;2024-01-16T08:29:24;-1.50;99.90
5304;DHT22;2674;49.722;10.892;2024-01-16T08:31:50;-1.50;99.90
5304;DHT22;2674;49.722;10.892;2024-01-16T08:34:19;-1.50;99.90
5304;DHT22;2674;49.722;10.892;2024-01-16T08:36:45;-1.50;99.90
5304;DHT22;2674;49.722;10.892;2024-01-16T08:39:11;-1.50;99.90
5304;DHT22;2674;49.722;10.892;2024-01-16T08:41:37;-1.40;99.90
5304;DHT22;2674;49.722;10.892;2024-01-16T08:44:03;-1.40;99.90
5304;DHT22;2674;49.722;10.892;2024-01-16T08:46:29;-1.40;99.90
5304;DHT22;2674;49.722;10.892;2024-01-16T08:48:55;-1.30;99.90
5304;DHT22;2674;49.722;10.892;2024-01-16T08:51:21;-1.30;99.90
5304;DHT22;2674;49.722;10.892;2024-01-16T08:53:47;-1.20;99.90
5304;DHT22;2674;49.722;10.892;2024-01-16T08:56:12;-1.20;99.90
5304;DHT22;2674;49.722;10.892;2024-01-16T08:58:38;-1.10;99.90
5304;DHT22;2674;49.722;10.892;2024-01-16T09:01:05;-1.10;99.90
5304;DHT22;2674;49.722;10.892;2024-01-16T09:03:34;-1.10;99.90
5304;DHT22;2674;49.722;10.892;2024-01-16T09:06:00;-1.10;99.90
5304;DHT22;2674;49.722;10.892;2024-01-16T09:08:27;-1.10;99.90
5304;DHT22;2674;49.722;10.892;2024-01-16T09:10:53;-1.10;99.90
5304;DHT22;2674;49.722;10.892;2024-01-16T09:13:20;-1.20;99.90
5304;DHT22;2674;49.722;10.892;2024-01-16T09:15:47;-0.90;99.90
5304;DHT22;2674;49.722;10.892;2024-01-16T09:18:14;-0.40;99.90
5304;DHT22;2674;49.722;10.892;2024-01-16T09:20:39;-0.50;99.90
5304;DHT22;2674;49.722;10.892;2024-01-16T09:23:05;-0.50;99.90
5304;DHT22;2674;49.722;10.892;2024-01-16T09:25:31;-0.50;99.90
5304;DHT22;2674;49.722;10.892;2024-01-16T09:27:57;-0.60;99.90
5304;DHT22;2674;49.722;10.892;2024-01-16T09:30:22;-0.60;99.90
5304;DHT22;2674;49.722;10.892;2024-01-16T09:32:49;-0.60;99.90
5304;DHT22;2674;49.722;10.892;2024-01-16T09:35:15;-0.70;99.90
5304;DHT22;2674;49.722;10.892;2024-01-16T09:37:41;-0.70;99.90
5304;DHT22;2674;49.722;10.892;2024-01-16T09:40:07;-0.70;99.90
5304;DHT22;2674;49.722;10.892;2024-01-16T09:42:33;-0.70;99.90
5304;DHT22;2674;49.722;10.892;2024-01-16T09:45:00;-0.70;99.90
5304;DHT22;2674;49.722;10.892;2024-01-16T09:47:30;-0.70;99.90
5304;DHT22;2674;49.722;10.892;2024-01-16T09:50:03;-0.70;99.90
5304;DHT22;2674;49.722;10.892;2024-01-16T09:52:29;-0.60;99.90
5304;DHT22;2674;49.722;10.892;2024-01-16T09:54:55;-0.60;99.90
5304;DHT22;2674;49.722;10.892;2024-01-16T09:57:25;-0.60;99.90
5304;DHT22;2674;49.722;10.892;2024-01-16T09:59:52;-0.60;99.90
5304;DHT22;2674;49.722;10.892;2024-01-16T10:02:19;-0.50;99.90
5304;DHT22;2674;49.722;10.892;2024-01-16T10:04:46;-0.50;99.90
5304;DHT22;2674;49.722;10.892;2024-01-16T10:07:12;-0.50;99.90
5304;DHT22;2674;49.722;10.892;2024-01-16T10:09:39;-0.50;99.90
5304;DHT22;2674;49.722;10.892;2024-01-16T10:12:06;-0.40;99.90
5304;DHT22;2674;49.722;10.892;2024-01-16T10:14:33;-0.40;99.90
5304;DHT22;2674;49.722;10.892;2024-01-16T10:19:27;-0.30;99.90
5304;DHT22;2674;49.722;10.892;2024-01-16T10:22:01;-0.30;99.90
5304;DHT22;2674;49.722;10.892;2024-01-16T10:24:28;-0.20;99.90
5304;DHT22;2674;49.722;10.892;2024-01-16T10:27:01;-0.20;99.90
5304;DHT22;2674;49.722;10.892;2024-01-16T10:29:28;-0.10;99.90
5304;DHT22;2674;49.722;10.892;2024-01-16T10:31:55;-0.10;99.90
5304;DHT22;2674;49.722;10.892;2024-01-16T10:34:21;-0.10;99.90
5304;DHT22;2674;49.722;10.892;2024-01-16T10:36:51;-0.10;99.90
5304;DHT22;2674;49.722;10.892;2024-01-16T10:39:18;-0.10;99.90
5304;DHT22;2674;49.722;10.892;2024-01-16T10:41:59;-0.10;99.90
5304;DHT22;2674;49.722;10.892;2024-01-16T10:44:25;-0.10;99.90
5304;DHT22;2674;49.722;10.892;2024-01-16T10:47:09;0.00;99.90
5304;DHT22;2674;49.722;10.892;2024-01-16T10:49:37;0.00;99.90
5304;DHT22;2674;49.722;10.892;2024-01-16T10:52:06;0.00;99.90
5304;DHT22;2674;49.722;10.892;2024-01-16T10:54:35;0.00;99.90
5304;DHT22;2674;49.722;10.892;2024-01-16T10:57:03;0.00;99.90
5304;DHT22;2674;49.722;10.892;2024-01-16T10:59:42;0.00;99.90
5304;DHT22;2674;49.722;10.892;2024-01-16T11:02:13;0.00;99.90
5304;DHT22;2674;49.722;10.892;2024-01-16T11:04:42;0.00;99.90
5304;DHT22;2674;49.722;10.892;2024-01-16T11:07:08;0.00;99.90
5304;DHT22;2674;49.722;10.892;2024-01-16T11:09:35;0.00;99.90
5304;DHT22;2674;49.722;10.892;2024-01-16T11:12:02;0.10;99.90
5304;DHT22;2674;49.722;10.892;2024-01-16T11:14:30;0.20;99.90
5304;DHT22;2674;49.722;10.892;2024-01-16T11:16:58;0.20;99.90
5304;DHT22;2674;49.722;10.892;2024-01-16T11:19:26;0.30;99.90
5304;DHT22;2674;49.722;10.892;2024-01-16T11:21:53;0.30;99.90
5304;DHT22;2674;49.722;10.892;2024-01-16T11:24:19;0.20;99.90
5304;DHT22;2674;49.722;10.892;2024-01-16T11:26:45;0.20;99.90
5304;DHT22;2674;49.722;10.892;2024-01-16T11:31:52;0.30;99.90
5304;DHT22;2674;49.722;10.892;2024-01-16T11:37:13;0.30;99.90
5304;DHT22;2674;49.722;10.892;2024-01-16T11:39:39;0.30;99.90
5304;DHT22;2674;49.722;10.892;2024-01-16T11:42:08;0.30;99.90
5304;DHT22;2674;49.722;10.892;2024-01-16T11:44:45;0.30;99.90
5304;DHT22;2674;49.722;10.892;2024-01-16T11:47:23;0.30;99.90
5304;DHT22;2674;49.722;10.892;2024-01-16T11:49:51;0.30;99.90
5304;DHT22;2674;49.722;10.892;2024-01-16T11:52:42;0.40;99.90
5304;DHT22;2674;49.722;10.892;2024-01-16T11:55:29;0.40;99.90
5304;DHT22;2674;49.722;10.892;2024-01-16T12:00:56;0.50;99.90
5304;DHT22;2674;49.722;10.892;2024-01-16T12:03:23;0.60;99.90
5304;DHT22;2674;49.722;10.892;2024-01-16T12:05:56;0.60;99.90
5304;DHT22;2674;49.722;10.892;2024-01-16T12:08:22;0.50;99.90
5304;DHT22;2674;49.722;10.892;2024-01-16T12:10:48;0.60;99.00
5304;DHT22;2674;49.722;10.892;2024-01-16T12:13:14;0.60;97.10
5304;DHT22;2674;49.722;10.892;2024-01-16T12:15:40;0.60;92.50
5304;DHT22;2674;49.722;10.892;2024-01-16T12:18:06;0.70;90.00
5304;DHT22;2674;49.722;10.892;2024-01-16T12:20:34;0.70;88.00
5304;DHT22;2674;49.722;10.892;2024-01-16T12:23:00;0.80;90.60
5304;DHT22;2674;49.722;10.892;2024-01-16T12:25:28;0.80;88.50
5304;DHT22;2674;49.722;10.892;2024-01-16T12:27:55;0.90;91.10
5304;DHT22;2674;49.722;10.892;2024-01-16T12:30:24;0.90;67.10
5304;DHT22;2674;49.722;10.892;2024-01-16T12:32:50;1.00;79.90
5304;DHT22;2674;49.722;10.892;2024-01-16T12:35:20;1.00;63.20
5304;DHT22;2674;49.722;10.892;2024-01-16T12:37:58;1.00;54.50
5304;DHT22;2674;49.722;10.892;2024-01-16T12:40:24;1.10;55.50
5304;DHT22;2674;49.722;10.892;2024-01-16T12:42:51;1.10;69.90
5304;DHT22;2674;49.722;10.892;2024-01-16T12:45:17;1.10;52.40
5304;DHT22;2674;49.722;10.892;2024-01-16T12:47:44;1.10;43.90
5304;DHT22;2674;49.722;10.892;2024-01-16T12:50:10;1.10;53.70
5304;DHT22;2674;49.722;10.892;2024-01-16T12:52:36;1.10;52.70
5304;DHT22;2674;49.722;10.892;2024-01-16T12:55:02;1.10;45.50
5304;DHT22;2674;49.722;10.892;2024-01-16T12:57:30;1.10;47.60
5304;DHT22;2674;49.722;10.892;2024-01-16T12:59:56;1.00;51.50
5304;DHT22;2674;49.722;10.892;2024-01-16T13:02:25;1.00;54.40
5304;DHT22;2674;49.722;10.892;2024-01-16T13:04:58;1.10;58.70
5304;DHT22;2674;49.722;10.892;2024-01-16T13:07:27;1.10;55.40
5304;DHT22;2674;49.722;10.892;2024-01-16T13:10:07;1.10;41.50
5304;DHT22;2674;49.722;10.892;2024-01-16T13:12:34;1.10;48.20
5304;DHT22;2674;49.722;10.892;2024-01-16T13:15:01;1.10;51.50
5304;DHT22;2674;49.722;10.892;2024-01-16T13:17:32;1.10;49.50
5304;DHT22;2674;49.722;10.892;2024-01-16T13:19:59;1.10;53.20
5304;DHT22;2674;49.722;10.892;2024-01-16T13:22:24;1.10;38.70
5304;DHT22;2674;49.722;10.892;2024-01-16T13:24:50;1.20;39.00
5304;DHT22;2674;49.722;10.892;2024-01-16T13:27:16;1.20;27.50
5304;DHT22;2674;49.722;10.892;2024-01-16T13:29:42;1.10;28.90
5304;DHT22;2674;49.722;10.892;2024-01-16T13:32:10;1.10;28.40
5304;DHT22;2674;49.722;10.892;2024-01-16T13:34:36;1.10;32.20
5304;DHT22;2674;49.722;10.892;2024-01-16T13:37:04;1.10;37.40
5304;DHT22;2674;49.722;10.892;2024-01-16T13:39:30;1.00;31.80
5304;DHT22;2674;49.722;10.892;2024-01-16T13:42:01;1.00;27.00
5304;DHT22;2674;49.722;10.892;2024-01-16T13:44:31;1.00;29.00
5304;DHT22;2674;49.722;10.892;2024-01-16T13:46:57;0.90;33.40
5304;DHT22;2674;49.722;10.892;2024-01-16T13:49:23;0.80;28.80
5304;DHT22;2674;49.722;10.892;2024-01-16T13:51:49;0.70;39.00
5304;DHT22;2674;49.722;10.892;2024-01-16T13:54:14;0.70;51.60
5304;DHT22;2674;49.722;10.892;2024-01-16T13:56:41;0.70;53.20
5304;DHT22;2674;49.722;10.892;2024-01-16T13:59:08;0.70;45.80
5304;DHT22;2674;49.722;10.892;2024-01-16T14:01:34;0.70;52.40
5304;DHT22;2674;49.722;10.892;2024-01-16T14:03:59;0.70;42.50
5304;DHT22;2674;49.722;10.892;2024-01-16T14:06:25;0.70;50.70
5304;DHT22;2674;49.722;10.892;2024-01-16T14:08:51;0.70;49.10
5304;DHT22;2674;49.722;10.892;2024-01-16T14:11:17;0.70;38.80
5304;DHT22;2674;49.722;10.892;2024-01-16T14:13:42;0.80;41.80
5304;DHT22;2674;49.722;10.892;2024-01-16T14:16:09;0.80;42.10
5304;DHT22;2674;49.722;10.892;2024-01-16T14:18:35;0.70;36.50
5304;DHT22;2674;49.722;10.892;2024-01-16T14:21:01;0.70;39.10
5304;DHT22;2674;49.722;10.892;2024-01-16T14:23:30;0.70;42.80
5304;DHT22;2674;49.722;10.892;2024-01-16T14:25:56;0.70;37.60
5304;DHT22;2674;49.722;10.892;2024-01-16T14:28:21;0.70;43.80
5304;DHT22;2674;49.722;10.892;2024-01-16T14:30:51;0.60;48.10
5304;DHT22;2674;49.722;10.892;2024-01-16T14:33:17;0.60;43.10
5304;DHT22;2674;49.722;10.892;2024-01-16T14:35:44;0.60;39.30
5304;DHT22;2674;49.722;10.892;2024-01-16T14:38:10;0.50;35.40
5304;DHT22;2674;49.722;10.892;2024-01-16T14:40:36;0.50;43.40
5304;DHT22;2674;49.722;10.892;2024-01-16T14:43:02;0.40;44.40
5304;DHT22;2674;49.722;10.892;2024-01-16T14:45:30;0.40;58.10
5304;DHT22;2674;49.722;10.892;2024-01-16T14:47:57;0.40;58.40
5304;DHT22;2674;49.722;10.892;2024-01-16T14:50:23;0.30;70.00
5304;DHT22;2674;49.722;10.892;2024-01-16T14:52:50;0.30;88.90
5304;DHT22;2674;49.722;10.892;2024-01-16T14:55:17;0.30;92.90
5304;DHT22;2674;49.722;10.892;2024-01-16T14:57:43;0.30;96.50
5304;DHT22;2674;49.722;10.892;2024-01-16T15:00:17;0.30;99.10
5304;DHT22;2674;49.722;10.892;2024-01-16T15:02:49;0.20;99.90
5304;DHT22;2674;49.722;10.892;2024-01-16T15:05:16;0.20;96.30
5304;DHT22;2674;49.722;10.892;2024-01-16T15:07:42;0.20;99.10
5304;DHT22;2674;49.722;10.892;2024-01-16T15:10:09;0.20;99.90
5304;DHT22;2674;49.722;10.892;2024-01-16T15:12:38;0.20;99.10
5304;DHT22;2674;49.722;10.892;2024-01-16T15:15:04;0.20;99.90
5304;DHT22;2674;49.722;10.892;2024-01-16T15:17:31;0.20;99.90
5304;DHT22;2674;49.722;10.892;2024-01-16T15:19:57;0.10;99.90
5304;DHT22;2674;49.722;10.892;2024-01-16T15:22:23;0.10;99.90
5304;DHT22;2674;49.722;10.892;2024-01-16T15:24:48;0.10;99.90
5304;DHT22;2674;49.722;10.892;2024-01-16T15:27:14;0.10;99.90
5304;DHT22;2674;49.722;10.892;2024-01-16T15:29:41;0.00;99.90
5304;DHT22;2674;49.722;10.892;2024-01-16T15:32:07;0.00;99.90
5304;DHT22;2674;49.722;10.892;2024-01-16T15:34:33;-0.10;99.90
5304;DHT22;2674;49.722;10.892;2024-01-16T15:36:59;-0.10;99.90
5304;DHT22;2674;49.722;10.892;2024-01-16T15:39:25;-0.10;99.90
5304;DHT22;2674;49.722;10.892;2024-01-16T15:41:50;-0.20;99.90
5304;DHT22;2674;49.722;10.892;2024-01-16T15:44:16;-0.20;99.90
5304;DHT22;2674;49.722;10.892;2024-01-16T15:46:59;-0.20;99.90
5304;DHT22;2674;49.722;10.892;2024-01-16T15:49:26;-0.30;99.90
5304;DHT22;2674;49.722;10.892;2024-01-16T15:51:52;-0.30;99.90
5304;DHT22;2674;49.722;10.892;2024-01-16T15:54:18;-0.30;99.90
5304;DHT22;2674;49.722;10.892;2024-01-16T15:56:44;-0.30;99.90
5304;DHT22;2674;49.722;10.892;2024-01-16T15:59:10;-0.40;99.90